createdAt,value
2019-01-20T00:04:40.679Z,32.03
2019-01-20T00:09:45.711Z,33.87
2019-01-20T00:14:50.727Z,34.00
2019-01-20T00:19:55.795Z,28.90
2019-01-20T00:25:00.809Z,30.23
2019-01-20T00:30:07.858Z,26.13
2019-01-20T00:35:12.480Z,36.57
2019-01-20T00:40:17.920Z,30.67
2019-01-20T00:45:22.950Z,38.93
2019-01-20T00:50:27.959Z,38.13
2019-01-20T00:55:33.008Z,41.17
2019-01-20T01:00:38.028Z,37.27
2019-01-20T01:05:43.040Z,42.63
2019-01-20T01:10:48.090Z,35.73
2019-01-20T01:15:53.096Z,35.23
2019-01-20T01:20:58.168Z,41.07
2019-01-20T01:26:03.204Z,37.67
2019-01-20T01:31:08.237Z,40.20
2019-01-20T01:36:13.294Z,40.57
2019-01-20T01:41:18.323Z,45.43
2019-01-20T01:46:23.344Z,47.43
2019-01-20T01:51:28.364Z,46.10
2019-01-20T01:56:33.391Z,45.37
2019-01-20T02:01:38.425Z,46.30
2019-01-20T02:06:43.486Z,44.10
2019-01-20T02:11:48.470Z,59.03
2019-01-20T02:16:53.532Z,45.93
2019-01-20T02:21:59.009Z,61.97
2019-01-20T02:27:04.289Z,54.20
2019-01-20T02:32:09.324Z,51.03
2019-01-20T02:37:14.336Z,53.87
2019-01-20T02:42:19.424Z,67.77
2019-01-20T02:47:26.016Z,52.83
2019-01-20T02:52:31.092Z,62.73
2019-01-20T02:57:36.386Z,48.40
2019-01-20T03:02:41.412Z,59.87
2019-01-20T03:07:46.540Z,62.37
2019-01-20T03:12:51.572Z,55.07
2019-01-20T03:17:56.599Z,57.07
2019-01-20T03:23:01.649Z,57.73
2019-01-20T03:28:06.698Z,59.23
2019-01-20T03:33:11.751Z,64.27
2019-01-20T03:38:16.979Z,69.47
2019-01-20T03:43:22.001Z,68.90
2019-01-20T03:48:27.022Z,63.23
2019-01-20T03:53:32.044Z,61.80
2019-01-20T03:58:37.171Z,55.23
2019-01-20T04:03:42.186Z,72.30
2019-01-20T04:08:47.201Z,72.30
2019-01-20T04:13:52.242Z,65.47
2019-01-20T04:18:57.271Z,70.47
2019-01-20T04:24:02.323Z,82.27
2019-01-20T04:29:07.340Z,70.70
2019-01-20T04:34:12.364Z,79.20
2019-01-20T04:39:17.372Z,75.93
2019-01-20T04:44:22.392Z,76.53
2019-01-20T04:49:27.403Z,77.27
2019-01-20T04:54:32.425Z,77.70
2019-01-20T04:59:37.456Z,78.80
2019-01-20T05:04:42.469Z,74.13
2019-01-20T05:09:47.492Z,71.27
2019-01-20T05:14:52.524Z,73.10
2019-01-20T05:19:57.575Z,67.27
2019-01-20T05:25:02.655Z,85.87
2019-01-20T05:30:10.951Z,80.43
2019-01-20T05:35:16.284Z,78.57
2019-01-20T05:40:21.826Z,76.87
2019-01-20T05:45:26.985Z,73.40
2019-01-20T05:50:31.996Z,77.83
2019-01-20T05:55:37.025Z,82.27
2019-01-20T06:00:42.056Z,75.30
2019-01-20T06:05:47.131Z,78.20
2019-01-20T06:10:52.156Z,84.63
2019-01-20T06:15:57.199Z,85.73
2019-01-20T06:21:02.203Z,83.23
2019-01-20T06:26:07.285Z,81.23
2019-01-20T06:31:12.307Z,88.83
2019-01-20T06:36:17.335Z,87.27
2019-01-20T06:41:22.356Z,84.77
2019-01-20T06:46:27.387Z,84.23
2019-01-20T06:51:32.413Z,83.70
2019-01-20T06:56:37.419Z,83.90
2019-01-20T07:01:42.452Z,86.37
2019-01-20T07:06:47.473Z,85.40
2019-01-20T07:11:52.500Z,83.77
2019-01-20T07:16:57.504Z,82.10
2019-01-20T07:22:02.583Z,86.73
2019-01-20T07:27:07.600Z,85.87
2019-01-20T07:32:12.874Z,87.53
2019-01-20T07:37:19.234Z,90.70
2019-01-20T07:42:24.363Z,81.60
2019-01-20T07:47:29.657Z,82.90
2019-01-20T07:52:34.668Z,96.50
2019-01-20T07:57:39.780Z,81.43
2019-01-20T08:02:44.826Z,89.67
2019-01-20T08:07:50.009Z,77.03
2019-01-20T08:12:55.340Z,87.47
2019-01-20T08:18:00.593Z,81.60
2019-01-20T08:23:05.649Z,76.27
2019-01-20T08:28:10.671Z,77.27
2019-01-20T08:33:15.683Z,84.97
2019-01-20T08:38:20.729Z,72.03
2019-01-20T08:43:31.698Z,76.50
2019-01-20T08:48:32.829Z,83.73
2019-01-20T08:53:37.832Z,76.53
2019-01-20T08:58:42.860Z,73.10
2019-01-20T09:03:47.876Z,71.07
2019-01-20T09:08:52.891Z,64.87
2019-01-20T09:13:57.912Z,74.90
2019-01-20T09:19:02.932Z,69.73
2019-01-20T09:24:08.000Z,64.90
2019-01-20T09:29:13.028Z,70.37
2019-01-20T09:34:18.078Z,68.17
2019-01-20T09:39:23.100Z,66.40
2019-01-20T09:44:28.122Z,64.77
2019-01-20T09:49:33.150Z,67.73
2019-01-20T09:54:38.164Z,64.00
2019-01-20T09:59:43.179Z,70.50
2019-01-20T10:04:48.208Z,64.67
2019-01-20T10:09:53.234Z,64.00
2019-01-20T10:14:58.641Z,65.07
2019-01-20T10:20:05.337Z,60.50
2019-01-20T10:25:15.026Z,61.27
2019-01-20T10:30:24.062Z,71.43
2019-01-20T10:35:38.304Z,68.27
2019-01-20T10:40:43.316Z,67.17
2019-01-20T10:45:48.327Z,73.80
2019-01-20T10:50:53.351Z,75.00
2019-01-20T10:55:58.463Z,74.23
2019-01-20T11:01:03.498Z,67.00
2019-01-20T11:06:08.752Z,60.93
2019-01-20T11:11:13.772Z,58.27
2019-01-20T11:16:18.780Z,56.80
2019-01-20T11:21:23.805Z,58.33
2019-01-20T11:26:29.156Z,63.33
2019-01-20T11:31:34.201Z,67.97
2019-01-20T11:36:39.216Z,61.20
2019-01-20T11:41:44.326Z,55.83
2019-01-20T11:46:49.295Z,50.47
2019-01-20T11:51:54.528Z,51.00
2019-01-20T11:56:59.541Z,52.80
2019-01-20T12:02:05.168Z,49.30
2019-01-20T12:07:10.424Z,44.90
2019-01-20T12:12:15.422Z,43.70
2019-01-20T12:17:20.549Z,43.93
2019-01-20T12:22:25.551Z,45.67
2019-01-20T12:27:42.486Z,49.63
2019-01-20T12:32:47.557Z,45.03
2019-01-20T12:37:52.742Z,41.53
2019-01-20T12:42:57.748Z,44.13
2019-01-20T12:48:02.872Z,49.83
2019-01-20T12:53:07.907Z,47.17
2019-01-20T12:58:13.338Z,53.00
2019-01-20T13:03:18.337Z,69.53
2019-01-20T13:08:23.352Z,47.80
2019-01-20T13:13:28.356Z,50.13
2019-01-20T13:18:33.368Z,60.97
2019-01-20T13:23:38.372Z,78.00
2019-01-20T13:28:43.415Z,72.57
2019-01-20T13:33:48.427Z,70.90
2019-01-20T13:38:53.463Z,72.33
2019-01-20T13:43:59.535Z,64.23
2019-01-20T13:49:04.734Z,66.87
2019-01-20T13:54:09.726Z,69.27
2019-01-20T13:59:14.743Z,59.13
2019-01-20T14:04:19.807Z,53.53
2019-01-20T14:09:24.808Z,53.13
2019-01-20T14:14:29.832Z,56.93
2019-01-20T14:19:34.869Z,51.67
2019-01-20T14:24:40.092Z,49.33
2019-01-20T14:29:45.164Z,51.43
2019-01-20T14:34:50.924Z,50.97
2019-01-20T14:39:55.933Z,57.50
2019-01-20T14:45:01.538Z,52.57
2019-01-20T14:50:09.297Z,45.97
2019-01-20T14:55:14.762Z,43.10
2019-01-20T15:00:25.980Z,35.63
2019-01-20T15:05:32.747Z,43.83
2019-01-20T15:10:37.754Z,38.53
2019-01-20T15:15:42.734Z,37.33
2019-01-20T15:20:47.709Z,54.77
2019-01-20T15:25:53.022Z,40.40
2019-01-20T15:30:58.011Z,36.03
2019-01-20T15:36:02.983Z,44.27
2019-01-20T15:41:08.090Z,41.47
2019-01-20T15:46:13.038Z,41.47
2019-01-20T15:51:18.007Z,46.60
2019-01-20T15:56:22.976Z,55.47
2019-01-20T16:01:27.937Z,50.27
2019-01-20T16:06:32.896Z,47.53
2019-01-20T16:11:37.969Z,60.17
2019-01-20T16:16:43.235Z,54.77
2019-01-20T16:21:48.205Z,56.47
2019-01-20T16:26:53.443Z,47.47
2019-01-20T16:31:58.409Z,44.37
2019-01-20T16:37:03.430Z,61.13
2019-01-20T16:42:08.391Z,51.43
2019-01-20T16:47:13.426Z,82.97
2019-01-20T16:52:18.424Z,48.47
2019-01-20T16:57:23.669Z,54.60
2019-01-20T17:02:28.657Z,53.63
2019-01-20T17:07:33.744Z,50.87
2019-01-20T17:12:38.704Z,53.40
2019-01-20T17:17:43.902Z,55.13
2019-01-20T17:22:49.825Z,49.60
2019-01-20T17:27:54.916Z,49.47
2019-01-20T17:33:01.376Z,56.40
2019-01-20T17:38:27.004Z,58.43
2019-01-20T17:43:31.980Z,60.27
2019-01-20T17:48:37.008Z,59.60
2019-01-20T17:53:41.995Z,59.80
2019-01-20T17:58:47.003Z,60.20
2019-01-20T18:03:51.995Z,58.47
2019-01-20T18:08:56.990Z,74.63
2019-01-20T18:14:01.960Z,74.80
2019-01-20T18:19:06.947Z,77.87
2019-01-20T18:24:11.984Z,73.43
2019-01-20T18:29:17.024Z,61.90
2019-01-20T18:34:22.009Z,62.37
2019-01-20T18:39:27.018Z,73.23
2019-01-20T18:44:32.005Z,74.57
2019-01-20T18:49:36.984Z,58.10
2019-01-20T18:54:41.961Z,65.03
2019-01-20T18:59:46.935Z,61.23
2019-01-20T19:04:53.125Z,65.93
2019-01-20T19:09:58.123Z,70.67
2019-01-20T19:15:03.111Z,75.13
2019-01-20T19:20:09.980Z,75.40
2019-01-20T19:25:15.358Z,77.70
2019-01-20T19:30:23.020Z,81.27
2019-01-20T19:35:28.474Z,88.57
2019-01-20T19:40:33.444Z,76.00
2019-01-20T19:45:38.417Z,82.17
2019-01-20T19:50:43.406Z,76.57
2019-01-20T19:55:48.441Z,79.53
2019-01-20T20:00:53.421Z,82.87
2019-01-20T20:05:58.583Z,87.27
2019-01-20T20:11:03.571Z,80.77
2019-01-20T20:16:08.578Z,106.53
2019-01-20T20:21:13.889Z,85.47
2019-01-20T20:26:18.868Z,85.90
2019-01-20T20:31:23.891Z,78.83
2019-01-20T20:36:28.881Z,80.07
2019-01-20T20:41:33.899Z,83.60
2019-01-20T20:46:38.880Z,85.70
2019-01-20T20:51:43.870Z,90.17
2019-01-20T20:56:48.874Z,84.60
2019-01-20T21:01:53.945Z,84.70
2019-01-20T21:06:58.939Z,83.43
2019-01-20T21:12:04.206Z,73.23
2019-01-20T21:17:09.228Z,71.30
2019-01-20T21:22:14.216Z,66.93
2019-01-20T21:27:19.241Z,76.00
2019-01-20T21:32:24.232Z,73.83
2019-01-20T21:37:29.467Z,97.90
2019-01-20T21:42:34.450Z,88.03
2019-01-20T21:47:39.575Z,90.57
2019-01-20T21:52:44.587Z,89.90
2019-01-20T21:57:49.769Z,95.93
2019-01-20T22:02:54.759Z,103.30
2019-01-20T22:07:59.751Z,98.70
2019-01-20T22:13:04.733Z,82.87
2019-01-20T22:18:09.713Z,84.17
2019-01-20T22:23:14.768Z,86.90
2019-01-20T22:28:19.787Z,86.60
2019-01-20T22:33:25.191Z,84.50
2019-01-20T22:38:30.245Z,91.70
2019-01-20T22:43:35.179Z,89.07
2019-01-20T22:48:40.164Z,77.90
2019-01-20T22:53:45.162Z,92.07
2019-01-20T22:58:51.911Z,87.67
2019-01-20T23:03:56.927Z,96.80
2019-01-20T23:09:06.519Z,102.00
2019-01-20T23:14:08.933Z,92.27
2019-01-20T23:19:13.931Z,92.27
2019-01-20T23:24:18.917Z,90.73
2019-01-20T23:29:23.948Z,104.00
2019-01-20T23:34:28.913Z,91.13
2019-01-20T23:39:33.880Z,86.80
2019-01-20T23:44:38.884Z,99.63
2019-01-20T23:49:43.879Z,87.43
2019-01-20T23:54:48.860Z,87.17
2019-01-20T23:59:53.851Z,82.40
